sensor_id;sensor_type;location;lat;lon;timestamp;temperature;humidity
75824;DHT22;64457;51.976;9.834;2023-07-28T00:00:12;21.90;99.90
75824;DHT22;64457;51.976;9.834;2023-07-28T00:02:44;21.90;99.90
75824;DHT22;64457;51.976;9.834;2023-07-28T00:05:12;21.50;99.90
75824;DHT22;64457;51.976;9.834;2023-07-28T00:07:44;21.80;99.90
75824;DHT22;64457;51.976;9.834;2023-07-28T00:10:13;21.90;99.90
75824;DHT22;64457;51.976;9.834;2023-07-28T00:12:41;21.90;99.90
75824;DHT22;64457;51.976;9.834;2023-07-28T00:15:09;21.90;99.90
75824;DHT22;64457;51.976;9.834;2023-07-28T00:17:38;22.10;99.90
75824;DHT22;64457;51.976;9.834;2023-07-28T00:20:07;21.90;99.90
75824;DHT22;64457;51.976;9.834;2023-07-28T00:22:36;21.80;99.90
75824;DHT22;64457;51.976;9.834;2023-07-28T00:25:06;21.90;99.90
75824;DHT22;64457;51.976;9.834;2023-07-28T00:27:35;22.00;99.90
75824;DHT22;64457;51.976;9.834;2023-07-28T00:30:05;22.10;99.90
75824;DHT22;64457;51.976;9.834;2023-07-28T00:32:34;21.90;99.90
75824;DHT22;64457;51.976;9.834;2023-07-28T00:35:02;21.90;99.90
75824;DHT22;64457;51.976;9.834;2023-07-28T00:37:31;21.70;99.90
75824;DHT22;64457;51.976;9.834;2023-07-28T00:40:00;21.70;99.90
75824;DHT22;64457;51.976;9.834;2023-07-28T00:42:29;21.80;99.90
75824;DHT22;64457;51.976;9.834;2023-07-28T00:44:57;22.10;99.90
75824;DHT22;64457;51.976;9.834;2023-07-28T00:47:25;22.10;99.90
75824;DHT22;64457;51.976;9.834;2023-07-28T00:49:57;21.80;99.90
75824;DHT22;64457;51.976;9.834;2023-07-28T00:52:25;21.90;99.90
75824;DHT22;64457;51.976;9.834;2023-07-28T00:54:53;21.90;99.90
75824;DHT22;64457;51.976;9.834;2023-07-28T00:57:21;22.00;99.90
75824;DHT22;64457;51.976;9.834;2023-07-28T00:59:51;21.90;99.90
75824;DHT22;64457;51.976;9.834;2023-07-28T01:02:19;21.90;99.90
75824;DHT22;64457;51.976;9.834;2023-07-28T01:04:48;21.90;99.90
75824;DHT22;64457;51.976;9.834;2023-07-28T01:07:24;21.70;99.90
75824;DHT22;64457;51.976;9.834;2023-07-28T01:10:00;21.80;99.90
75824;DHT22;64457;51.976;9.834;2023-07-28T01:12:30;22.00;99.90
75824;DHT22;64457;51.976;9.834;2023-07-28T01:14:59;21.80;99.90
75824;DHT22;64457;51.976;9.834;2023-07-28T01:17:30;21.90;99.90
75824;DHT22;64457;51.976;9.834;2023-07-28T01:19:59;21.80;99.90
75824;DHT22;64457;51.976;9.834;2023-07-28T01:22:46;21.90;99.90
75824;DHT22;64457;51.976;9.834;2023-07-28T01:25:22;22.00;99.90
75824;DHT22;64457;51.976;9.834;2023-07-28T01:28:01;21.90;99.90
75824;DHT22;64457;51.976;9.834;2023-07-28T01:30:30;21.90;99.90
75824;DHT22;64457;51.976;9.834;2023-07-28T01:32:59;21.90;99.90
75824;DHT22;64457;51.976;9.834;2023-07-28T01:35:28;22.00;99.90
75824;DHT22;64457;51.976;9.834;2023-07-28T01:37:56;21.80;99.90
75824;DHT22;64457;51.976;9.834;2023-07-28T01:40:24;21.90;99.90
75824;DHT22;64457;51.976;9.834;2023-07-28T01:42:52;21.90;99.90
75824;DHT22;64457;51.976;9.834;2023-07-28T01:45:21;21.80;99.90
75824;DHT22;64457;51.976;9.834;2023-07-28T01:47:50;21.80;99.90
75824;DHT22;64457;51.976;9.834;2023-07-28T01:50:18;21.70;99.90
75824;DHT22;64457;51.976;9.834;2023-07-28T01:52:46;21.80;99.90
75824;DHT22;64457;51.976;9.834;2023-07-28T01:55:15;21.80;99.90
75824;DHT22;64457;51.976;9.834;2023-07-28T01:57:54;21.70;99.90
75824;DHT22;64457;51.976;9.834;2023-07-28T02:00:25;21.60;99.90
75824;DHT22;64457;51.976;9.834;2023-07-28T02:02:54;21.60;99.90
75824;DHT22;64457;51.976;9.834;2023-07-28T02:05:27;21.50;99.90
75824;DHT22;64457;51.976;9.834;2023-07-28T02:07:55;21.70;99.90
75824;DHT22;64457;51.976;9.834;2023-07-28T02:10:25;21.80;99.90
75824;DHT22;64457;51.976;9.834;2023-07-28T02:12:54;21.70;99.90
75824;DHT22;64457;51.976;9.834;2023-07-28T02:15:25;21.60;99.90
75824;DHT22;64457;51.976;9.834;2023-07-28T02:17:53;21.70;99.90
75824;DHT22;64457;51.976;9.834;2023-07-28T02:20:21;21.70;99.90
75824;DHT22;64457;51.976;9.834;2023-07-28T02:22:49;21.70;99.90
75824;DHT22;64457;51.976;9.834;2023-07-28T02:25:17;21.60;99.90
75824;DHT22;64457;51.976;9.834;2023-07-28T02:27:44;21.70;99.90
75824;DHT22;64457;51.976;9.834;2023-07-28T02:30:12;21.70;99.90
75824;DHT22;64457;51.976;9.834;2023-07-28T02:32:45;21.70;99.90
75824;DHT22;64457;51.976;9.834;2023-07-28T02:35:13;21.80;99.90
75824;DHT22;64457;51.976;9.834;2023-07-28T02:37:41;21.70;99.90
75824;DHT22;64457;51.976;9.834;2023-07-28T02:40:10;21.60;99.90
75824;DHT22;64457;51.976;9.834;2023-07-28T02:42:39;21.60;99.90
75824;DHT22;64457;51.976;9.834;2023-07-28T02:45:08;21.70;99.90
75824;DHT22;64457;51.976;9.834;2023-07-28T02:47:44;21.00;99.90
75824;DHT22;64457;51.976;9.834;2023-07-28T02:50:12;20.90;99.90
75824;DHT22;64457;51.976;9.834;2023-07-28T02:52:40;21.00;99.90
75824;DHT22;64457;51.976;9.834;2023-07-28T02:55:08;20.90;99.90
75824;DHT22;64457;51.976;9.834;2023-07-28T02:57:36;20.80;99.90
75824;DHT22;64457;51.976;9.834;2023-07-28T03:00:06;21.00;99.90
75824;DHT22;64457;51.976;9.834;2023-07-28T03:02:36;21.30;99.90
75824;DHT22;64457;51.976;9.834;2023-07-28T03:05:06;21.30;99.90
75824;DHT22;64457;51.976;9.834;2023-07-28T03:07:34;21.20;99.90
75824;DHT22;64457;51.976;9.834;2023-07-28T03:10:03;21.00;99.90
75824;DHT22;64457;51.976;9.834;2023-07-28T03:12:34;21.20;99.90
75824;DHT22;64457;51.976;9.834;2023-07-28T03:15:02;21.40;99.90
75824;DHT22;64457;51.976;9.834;2023-07-28T03:17:31;21.70;99.90
75824;DHT22;64457;51.976;9.834;2023-07-28T03:19:58;21.50;99.90
75824;DHT22;64457;51.976;9.834;2023-07-28T03:22:27;21.70;99.90
75824;DHT22;64457;51.976;9.834;2023-07-28T03:24:55;21.90;99.90
75824;DHT22;64457;51.976;9.834;2023-07-28T03:27:23;22.10;99.90
75824;DHT22;64457;51.976;9.834;2023-07-28T03:29:50;22.10;99.90
75824;DHT22;64457;51.976;9.834;2023-07-28T03:32:18;21.90;99.90
75824;DHT22;64457;51.976;9.834;2023-07-28T03:34:46;22.00;99.90
75824;DHT22;64457;51.976;9.834;2023-07-28T03:37:14;21.40;99.90
75824;DHT22;64457;51.976;9.834;2023-07-28T03:39:43;21.40;99.90
75824;DHT22;64457;51.976;9.834;2023-07-28T03:42:10;21.50;99.90
75824;DHT22;64457;51.976;9.834;2023-07-28T03:44:38;21.50;99.90
75824;DHT22;64457;51.976;9.834;2023-07-28T03:47:07;21.60;99.90
75824;DHT22;64457;51.976;9.834;2023-07-28T03:49:35;21.80;99.90
75824;DHT22;64457;51.976;9.834;2023-07-28T03:52:03;22.10;99.90
75824;DHT22;64457;51.976;9.834;2023-07-28T03:54:31;22.00;99.90
75824;DHT22;64457;51.976;9.834;2023-07-28T03:57:00;22.10;99.90
75824;DHT22;64457;51.976;9.834;2023-07-28T03:59:28;22.10;99.90
75824;DHT22;64457;51.976;9.834;2023-07-28T04:01:56;21.40;99.90
75824;DHT22;64457;51.976;9.834;2023-07-28T04:04:24;21.40;99.90
75824;DHT22;64457;51.976;9.834;2023-07-28T04:06:51;21.30;99.90
75824;DHT22;64457;51.976;9.834;2023-07-28T04:09:20;21.40;99.90
75824;DHT22;64457;51.976;9.834;2023-07-28T04:11:47;21.80;99.90
75824;DHT22;64457;51.976;9.834;2023-07-28T04:14:16;22.10;99.90
75824;DHT22;64457;51.976;9.834;2023-07-28T04:16:44;21.90;99.90
75824;DHT22;64457;51.976;9.834;2023-07-28T04:19:11;22.00;99.90
75824;DHT22;64457;51.976;9.834;2023-07-28T04:21:39;22.00;99.90
75824;DHT22;64457;51.976;9.834;2023-07-28T04:24:07;22.00;99.90
75824;DHT22;64457;51.976;9.834;2023-07-28T04:26:35;22.10;99.90
75824;DHT22;64457;51.976;9.834;2023-07-28T04:29:03;22.10;99.90
75824;DHT22;64457;51.976;9.834;2023-07-28T04:31:32;22.10;99.90
75824;DHT22;64457;51.976;9.834;2023-07-28T04:33:59;22.20;99.90
75824;DHT22;64457;51.976;9.834;2023-07-28T04:36:29;22.10;99.90
75824;DHT22;64457;51.976;9.834;2023-07-28T04:38:56;22.00;99.90
75824;DHT22;64457;51.976;9.834;2023-07-28T04:41:24;22.10;99.90
75824;DHT22;64457;51.976;9.834;2023-07-28T04:43:51;22.10;99.90
75824;DHT22;64457;51.976;9.834;2023-07-28T04:46:19;22.10;99.90
75824;DHT22;64457;51.976;9.834;2023-07-28T04:48:48;22.10;99.90
75824;DHT22;64457;51.976;9.834;2023-07-28T04:51:15;22.10;99.90
75824;DHT22;64457;51.976;9.834;2023-07-28T04:53:43;22.10;99.90
75824;DHT22;64457;51.976;9.834;2023-07-28T04:56:10;22.10;99.90
75824;DHT22;64457;51.976;9.834;2023-07-28T04:58:38;22.20;99.90
75824;DHT22;64457;51.976;9.834;2023-07-28T05:01:05;22.10;99.90
75824;DHT22;64457;51.976;9.834;2023-07-28T05:03:34;21.50;99.90
75824;DHT22;64457;51.976;9.834;2023-07-28T05:06:04;21.70;99.90
75824;DHT22;64457;51.976;9.834;2023-07-28T05:08:32;22.00;99.90
75824;DHT22;64457;51.976;9.834;2023-07-28T05:11:00;22.20;99.90
75824;DHT22;64457;51.976;9.834;2023-07-28T05:13:27;22.30;99.90
75824;DHT22;64457;51.976;9.834;2023-07-28T05:15:55;22.20;99.90
75824;DHT22;64457;51.976;9.834;2023-07-28T05:18:22;22.10;99.90
75824;DHT22;64457;51.976;9.834;2023-07-28T05:20:50;22.30;99.90
75824;DHT22;64457;51.976;9.834;2023-07-28T05:23:20;22.30;99.90
75824;DHT22;64457;51.976;9.834;2023-07-28T05:25:48;22.40;99.90
75824;DHT22;64457;51.976;9.834;2023-07-28T05:28:16;22.60;99.90
75824;DHT22;64457;51.976;9.834;2023-07-28T05:30:44;22.70;99.90
75824;DHT22;64457;51.976;9.834;2023-07-28T05:33:11;22.70;99.90
75824;DHT22;64457;51.976;9.834;2023-07-28T05:35:39;22.60;99.90
75824;DHT22;64457;51.976;9.834;2023-07-28T05:38:06;22.60;99.90
75824;DHT22;64457;51.976;9.834;2023-07-28T05:40:35;22.50;99.90
75824;DHT22;64457;51.976;9.834;2023-07-28T05:43:03;22.40;99.90
75824;DHT22;64457;51.976;9.834;2023-07-28T05:45:30;22.50;99.90
75824;DHT22;64457;51.976;9.834;2023-07-28T05:47:58;22.70;99.90
75824;DHT22;64457;51.976;9.834;2023-07-28T05:50:25;22.80;99.90
75824;DHT22;64457;51.976;9.834;2023-07-28T05:52:53;22.80;99.90
75824;DHT22;64457;51.976;9.834;2023-07-28T05:55:20;22.90;99.90
75824;DHT22;64457;51.976;9.834;2023-07-28T05:57:49;22.80;99.90
75824;DHT22;64457;51.976;9.834;2023-07-28T06:00:17;22.80;99.90
75824;DHT22;64457;51.976;9.834;2023-07-28T06:02:45;22.50;99.90
75824;DHT22;64457;51.976;9.834;2023-07-28T06:05:13;22.70;99.90
75824;DHT22;64457;51.976;9.834;2023-07-28T06:07:41;22.90;99.90
75824;DHT22;64457;51.976;9.834;2023-07-28T06:10:08;23.20;99.90
75824;DHT22;64457;51.976;9.834;2023-07-28T06:12:36;23.20;99.90
75824;DHT22;64457;51.976;9.834;2023-07-28T06:15:06;23.10;99.90
75824;DHT22;64457;51.976;9.834;2023-07-28T06:17:34;22.90;99.90
75824;DHT22;64457;51.976;9.834;2023-07-28T06:20:02;22.70;99.90
75824;DHT22;64457;51.976;9.834;2023-07-28T06:22:30;22.80;99.90
75824;DHT22;64457;51.976;9.834;2023-07-28T06:24:57;22.90;99.90
75824;DHT22;64457;51.976;9.834;2023-07-28T06:27:25;22.90;99.90
75824;DHT22;64457;51.976;9.834;2023-07-28T06:29:53;23.00;99.90
75824;DHT22;64457;51.976;9.834;2023-07-28T06:32:22;22.80;99.90
75824;DHT22;64457;51.976;9.834;2023-07-28T06:34:50;23.00;99.90
75824;DHT22;64457;51.976;9.834;2023-07-28T06:37:18;23.10;99.90
75824;DHT22;64457;51.976;9.834;2023-07-28T06:39:45;23.20;99.90
75824;DHT22;64457;51.976;9.834;2023-07-28T06:42:13;23.10;99.90
75824;DHT22;64457;51.976;9.834;2023-07-28T06:44:42;23.10;99.90
75824;DHT22;64457;51.976;9.834;2023-07-28T06:47:09;23.00;99.90
75824;DHT22;64457;51.976;9.834;2023-07-28T06:49:38;23.30;99.90
75824;DHT22;64457;51.976;9.834;2023-07-28T06:52:06;23.70;99.90
75824;DHT22;64457;51.976;9.834;2023-07-28T06:54:34;23.70;99.90
75824;DHT22;64457;51.976;9.834;2023-07-28T06:57:02;23.60;99.90
75824;DHT22;64457;51.976;9.834;2023-07-28T06:59:30;23.50;99.90
75824;DHT22;64457;51.976;9.834;2023-07-28T07:01:58;23.60;99.90
75824;DHT22;64457;51.976;9.834;2023-07-28T07:04:25;23.60;99.90
75824;DHT22;64457;51.976;9.834;2023-07-28T07:06:54;23.70;99.90
75824;DHT22;64457;51.976;9.834;2023-07-28T07:09:22;23.60;99.90
75824;DHT22;64457;51.976;9.834;2023-07-28T07:11:49;23.50;99.90
75824;DHT22;64457;51.976;9.834;2023-07-28T07:14:17;23.50;99.90
75824;DHT22;64457;51.976;9.834;2023-07-28T07:16:45;23.30;99.90
75824;DHT22;64457;51.976;9.834;2023-07-28T07:19:13;23.00;99.90
75824;DHT22;64457;51.976;9.834;2023-07-28T07:21:41;22.90;99.90
75824;DHT22;64457;51.976;9.834;2023-07-28T07:24:12;23.10;99.90
75824;DHT22;64457;51.976;9.834;2023-07-28T07:26:40;23.40;99.90
75824;DHT22;64457;51.976;9.834;2023-07-28T07:29:08;23.50;99.90
75824;DHT22;64457;51.976;9.834;2023-07-28T07:31:36;23.40;99.90
75824;DHT22;64457;51.976;9.834;2023-07-28T07:34:03;23.60;99.90
75824;DHT22;64457;51.976;9.834;2023-07-28T07:36:31;23.70;99.90
75824;DHT22;64457;51.976;9.834;2023-07-28T07:38:59;23.60;99.90
75824;DHT22;64457;51.976;9.834;2023-07-28T07:41:28;23.50;99.90
75824;DHT22;64457;51.976;9.834;2023-07-28T07:43:56;23.70;99.90
75824;DHT22;64457;51.976;9.834;2023-07-28T07:46:24;23.70;99.90
75824;DHT22;64457;51.976;9.834;2023-07-28T07:48:52;23.70;99.90
75824;DHT22;64457;51.976;9.834;2023-07-28T07:51:19;23.40;99.90
75824;DHT22;64457;51.976;9.834;2023-07-28T07:53:47;23.40;99.90
75824;DHT22;64457;51.976;9.834;2023-07-28T07:56:15;23.60;99.90
75824;DHT22;64457;51.976;9.834;2023-07-28T07:58:44;23.60;99.90
75824;DHT22;64457;51.976;9.834;2023-07-28T08:01:12;23.50;99.90
75824;DHT22;64457;51.976;9.834;2023-07-28T08:03:39;23.20;99.90
75824;DHT22;64457;51.976;9.834;2023-07-28T08:06:07;23.40;99.90
75824;DHT22;64457;51.976;9.834;2023-07-28T08:08:37;23.70;99.90
75824;DHT22;64457;51.976;9.834;2023-07-28T08:11:05;24.00;99.90
75824;DHT22;64457;51.976;9.834;2023-07-28T08:13:33;23.90;99.90
75824;DHT22;64457;51.976;9.834;2023-07-28T08:16:02;23.70;99.90
75824;DHT22;64457;51.976;9.834;2023-07-28T08:18:30;23.90;99.90
75824;DHT22;64457;51.976;9.834;2023-07-28T08:20:57;24.00;99.90
75824;DHT22;64457;51.976;9.834;2023-07-28T08:23:26;24.10;99.90
75824;DHT22;64457;51.976;9.834;2023-07-28T08:25:53;24.40;99.90
75824;DHT22;64457;51.976;9.834;2023-07-28T08:28:21;24.50;99.50
75824;DHT22;64457;51.976;9.834;2023-07-28T08:30:54;24.60;99.70
75824;DHT22;64457;51.976;9.834;2023-07-28T08:33:25;24.80;99.60
75824;DHT22;64457;51.976;9.834;2023-07-28T08:35:53;23.90;99.90
75824;DHT22;64457;51.976;9.834;2023-07-28T08:38:20;23.90;99.90
75824;DHT22;64457;51.976;9.834;2023-07-28T08:40:48;24.20;99.90
75824;DHT22;64457;51.976;9.834;2023-07-28T08:43:16;24.60;99.90
75824;DHT22;64457;51.976;9.834;2023-07-28T08:45:43;24.80;99.60
75824;DHT22;64457;51.976;9.834;2023-07-28T08:48:11;25.00;99.40
75824;DHT22;64457;51.976;9.834;2023-07-28T08:50:41;25.00;99.00
75824;DHT22;64457;51.976;9.834;2023-07-28T08:53:11;24.70;99.40
75824;DHT22;64457;51.976;9.834;2023-07-28T08:55:39;24.80;99.20
75824;DHT22;64457;51.976;9.834;2023-07-28T08:58:17;24.70;99.40
75824;DHT22;64457;51.976;9.834;2023-07-28T09:00:46;24.90;99.50
75824;DHT22;64457;51.976;9.834;2023-07-28T09:03:15;25.10;99.30
75824;DHT22;64457;51.976;9.834;2023-07-28T09:05:45;25.50;98.70
75824;DHT22;64457;51.976;9.834;2023-07-28T09:08:13;25.50;98.10
75824;DHT22;64457;51.976;9.834;2023-07-28T09:10:41;25.40;98.60
75824;DHT22;64457;51.976;9.834;2023-07-28T09:13:13;25.00;98.90
75824;DHT22;64457;51.976;9.834;2023-07-28T09:15:42;25.00;99.10
75824;DHT22;64457;51.976;9.834;2023-07-28T09:18:11;25.00;99.20
75824;DHT22;64457;51.976;9.834;2023-07-28T09:20:41;24.70;99.80
75824;DHT22;64457;51.976;9.834;2023-07-28T09:23:13;24.70;99.70
75824;DHT22;64457;51.976;9.834;2023-07-28T09:25:42;24.50;99.90
75824;DHT22;64457;51.976;9.834;2023-07-28T09:28:09;24.60;99.90
75824;DHT22;64457;51.976;9.834;2023-07-28T09:30:48;24.90;99.70
75824;DHT22;64457;51.976;9.834;2023-07-28T09:33:29;25.00;99.40
75824;DHT22;64457;51.976;9.834;2023-07-28T09:35:58;25.00;99.10
75824;DHT22;64457;51.976;9.834;2023-07-28T09:38:37;25.20;98.80
75824;DHT22;64457;51.976;9.834;2023-07-28T09:41:07;25.10;98.70
75824;DHT22;64457;51.976;9.834;2023-07-28T09:43:36;25.10;99.20
75824;DHT22;64457;51.976;9.834;2023-07-28T09:46:04;25.30;98.60
75824;DHT22;64457;51.976;9.834;2023-07-28T09:48:34;25.30;98.50
75824;DHT22;64457;51.976;9.834;2023-07-28T09:51:06;25.00;99.30
75824;DHT22;64457;51.976;9.834;2023-07-28T09:53:44;25.10;99.20
75824;DHT22;64457;51.976;9.834;2023-07-28T09:56:30;25.40;98.90
75824;DHT22;64457;51.976;9.834;2023-07-28T09:59:00;25.90;98.30
75824;DHT22;64457;51.976;9.834;2023-07-28T10:01:29;26.30;98.00
75824;DHT22;64457;51.976;9.834;2023-07-28T10:03:58;26.70;96.90
75824;DHT22;64457;51.976;9.834;2023-07-28T10:06:27;27.00;96.90
75824;DHT22;64457;51.976;9.834;2023-07-28T10:08:57;27.50;95.60
75824;DHT22;64457;51.976;9.834;2023-07-28T10:11:25;27.40;96.00
75824;DHT22;64457;51.976;9.834;2023-07-28T10:13:56;27.40;95.30
75824;DHT22;64457;51.976;9.834;2023-07-28T10:16:30;27.30;94.60
75824;DHT22;64457;51.976;9.834;2023-07-28T10:18:59;26.90;95.30
75824;DHT22;64457;51.976;9.834;2023-07-28T10:21:28;26.30;96.40
75824;DHT22;64457;51.976;9.834;2023-07-28T10:24:04;26.40;96.30
75824;DHT22;64457;51.976;9.834;2023-07-28T10:26:35;26.80;96.00
75824;DHT22;64457;51.976;9.834;2023-07-28T10:29:10;26.90;96.10
75824;DHT22;64457;51.976;9.834;2023-07-28T10:31:50;27.30;95.70
75824;DHT22;64457;51.976;9.834;2023-07-28T10:34:18;27.20;95.50
75824;DHT22;64457;51.976;9.834;2023-07-28T10:36:56;26.60;95.80
75824;DHT22;64457;51.976;9.834;2023-07-28T10:39:26;26.60;96.00
75824;DHT22;64457;51.976;9.834;2023-07-28T10:42:02;26.40;95.80
75824;DHT22;64457;51.976;9.834;2023-07-28T10:44:31;26.30;97.10
75824;DHT22;64457;51.976;9.834;2023-07-28T10:46:59;26.80;96.30
75824;DHT22;64457;51.976;9.834;2023-07-28T10:49:26;26.60;95.40
75824;DHT22;64457;51.976;9.834;2023-07-28T10:51:54;26.70;95.70
75824;DHT22;64457;51.976;9.834;2023-07-28T10:54:22;26.70;95.30
75824;DHT22;64457;51.976;9.834;2023-07-28T10:56:51;26.60;95.50
75824;DHT22;64457;51.976;9.834;2023-07-28T10:59:19;26.80;95.80
75824;DHT22;64457;51.976;9.834;2023-07-28T11:01:50;26.90;95.60
75824;DHT22;64457;51.976;9.834;2023-07-28T11:04:19;27.20;95.00
75824;DHT22;64457;51.976;9.834;2023-07-28T11:06:50;27.20;95.30
75824;DHT22;64457;51.976;9.834;2023-07-28T11:09:21;27.00;95.30
75824;DHT22;64457;51.976;9.834;2023-07-28T11:11:51;26.60;95.50
75824;DHT22;64457;51.976;9.834;2023-07-28T11:14:19;26.30;96.20
75824;DHT22;64457;51.976;9.834;2023-07-28T11:16:48;26.50;96.00
75824;DHT22;64457;51.976;9.834;2023-07-28T11:19:16;26.60;96.20
75824;DHT22;64457;51.976;9.834;2023-07-28T11:21:50;27.20;95.90
75824;DHT22;64457;51.976;9.834;2023-07-28T11:24:19;27.70;94.90
75824;DHT22;64457;51.976;9.834;2023-07-28T11:26:50;27.80;94.30
75824;DHT22;64457;51.976;9.834;2023-07-28T11:29:18;27.70;94.60
75824;DHT22;64457;51.976;9.834;2023-07-28T11:31:47;27.80;94.30
75824;DHT22;64457;51.976;9.834;2023-07-28T11:34:16;27.60;93.60
75824;DHT22;64457;51.976;9.834;2023-07-28T11:36:45;27.00;94.80
75824;DHT22;64457;51.976;9.834;2023-07-28T11:39:13;26.90;95.00
75824;DHT22;64457;51.976;9.834;2023-07-28T11:41:41;27.10;95.00
75824;DHT22;64457;51.976;9.834;2023-07-28T11:44:11;27.50;95.50
75824;DHT22;64457;51.976;9.834;2023-07-28T11:46:40;28.00;93.70
75824;DHT22;64457;51.976;9.834;2023-07-28T11:49:14;28.50;93.90
75824;DHT22;64457;51.976;9.834;2023-07-28T11:51:44;29.00;92.80
75824;DHT22;64457;51.976;9.834;2023-07-28T11:54:15;28.80;93.00
75824;DHT22;64457;51.976;9.834;2023-07-28T11:56:46;28.90;92.30
75824;DHT22;64457;51.976;9.834;2023-07-28T11:59:17;28.70;92.40
75824;DHT22;64457;51.976;9.834;2023-07-28T12:01:53;29.00;92.70
75824;DHT22;64457;51.976;9.834;2023-07-28T12:04:22;29.40;91.80
75824;DHT22;64457;51.976;9.834;2023-07-28T12:07:01;29.20;90.90
75824;DHT22;64457;51.976;9.834;2023-07-28T12:09:36;28.90;91.50
75824;DHT22;64457;51.976;9.834;2023-07-28T12:12:20;28.50;91.30
75824;DHT22;64457;51.976;9.834;2023-07-28T12:14:50;28.30;92.50
75824;DHT22;64457;51.976;9.834;2023-07-28T12:17:22;28.60;92.60
75824;DHT22;64457;51.976;9.834;2023-07-28T12:19:57;29.00;91.90
75824;DHT22;64457;51.976;9.834;2023-07-28T12:22:26;29.00;91.30
75824;DHT22;64457;51.976;9.834;2023-07-28T12:24:54;28.80;90.20
75824;DHT22;64457;51.976;9.834;2023-07-28T12:27:22;28.80;91.80
75824;DHT22;64457;51.976;9.834;2023-07-28T12:29:52;29.00;91.30
75824;DHT22;64457;51.976;9.834;2023-07-28T12:32:20;28.90;90.20
75824;DHT22;64457;51.976;9.834;2023-07-28T12:34:48;28.80;91.50
75824;DHT22;64457;51.976;9.834;2023-07-28T12:37:17;28.70;90.90
75824;DHT22;64457;51.976;9.834;2023-07-28T12:39:45;28.40;91.50
75824;DHT22;64457;51.976;9.834;2023-07-28T12:42:14;28.50;91.70
75824;DHT22;64457;51.976;9.834;2023-07-28T12:44:42;28.70;91.70
75824;DHT22;64457;51.976;9.834;2023-07-28T12:47:11;28.70;91.30
75824;DHT22;64457;51.976;9.834;2023-07-28T12:49:39;28.70;91.20
75824;DHT22;64457;51.976;9.834;2023-07-28T12:52:06;29.00;91.00
75824;DHT22;64457;51.976;9.834;2023-07-28T12:54:35;29.30;90.30
75824;DHT22;64457;51.976;9.834;2023-07-28T12:57:05;29.70;90.50
75824;DHT22;64457;51.976;9.834;2023-07-28T12:59:35;29.60;87.30
75824;DHT22;64457;51.976;9.834;2023-07-28T13:02:03;29.40;89.00
75824;DHT22;64457;51.976;9.834;2023-07-28T13:04:32;29.20;90.50
75824;DHT22;64457;51.976;9.834;2023-07-28T13:07:00;28.90;89.40
75824;DHT22;64457;51.976;9.834;2023-07-28T13:09:27;28.70;90.60
75824;DHT22;64457;51.976;9.834;2023-07-28T13:11:55;28.70;91.10
75824;DHT22;64457;51.976;9.834;2023-07-28T13:14:23;28.90;91.00
75824;DHT22;64457;51.976;9.834;2023-07-28T13:16:51;28.80;90.50
75824;DHT22;64457;51.976;9.834;2023-07-28T13:19:19;29.00;90.90
75824;DHT22;64457;51.976;9.834;2023-07-28T13:21:48;29.30;90.70
75824;DHT22;64457;51.976;9.834;2023-07-28T13:24:15;29.60;90.10
75824;DHT22;64457;51.976;9.834;2023-07-28T13:26:43;29.40;90.00
75824;DHT22;64457;51.976;9.834;2023-07-28T13:29:10;29.30;89.80
75824;DHT22;64457;51.976;9.834;2023-07-28T13:31:38;29.40;90.50
75824;DHT22;64457;51.976;9.834;2023-07-28T13:34:06;29.20;89.50
75824;DHT22;64457;51.976;9.834;2023-07-28T13:36:33;28.70;89.10
75824;DHT22;64457;51.976;9.834;2023-07-28T13:39:03;28.60;90.90
75824;DHT22;64457;51.976;9.834;2023-07-28T13:41:31;28.80;90.40
75824;DHT22;64457;51.976;9.834;2023-07-28T13:43:59;28.80;88.80
75824;DHT22;64457;51.976;9.834;2023-07-28T13:46:27;29.00;90.10
75824;DHT22;64457;51.976;9.834;2023-07-28T13:48:55;29.00;88.30
75824;DHT22;64457;51.976;9.834;2023-07-28T13:51:22;28.80;89.00
75824;DHT22;64457;51.976;9.834;2023-07-28T13:53:50;28.60;89.60
75824;DHT22;64457;51.976;9.834;2023-07-28T13:56:19;28.60;90.40
75824;DHT22;64457;51.976;9.834;2023-07-28T13:58:47;29.00;90.40
75824;DHT22;64457;51.976;9.834;2023-07-28T14:01:15;29.30;89.00
75824;DHT22;64457;51.976;9.834;2023-07-28T14:03:42;29.20;89.70
75824;DHT22;64457;51.976;9.834;2023-07-28T14:06:11;29.20;88.70
75824;DHT22;64457;51.976;9.834;2023-07-28T14:08:38;29.20;89.00
75824;DHT22;64457;51.976;9.834;2023-07-28T14:11:06;29.30;89.40
75824;DHT22;64457;51.976;9.834;2023-07-28T14:13:35;29.60;88.10
75824;DHT22;64457;51.976;9.834;2023-07-28T14:16:03;29.30;88.90
75824;DHT22;64457;51.976;9.834;2023-07-28T14:18:31;29.40;88.80
75824;DHT22;64457;51.976;9.834;2023-07-28T14:20:58;29.20;88.60
75824;DHT22;64457;51.976;9.834;2023-07-28T14:23:27;29.20;88.90
75824;DHT22;64457;51.976;9.834;2023-07-28T14:25:55;29.30;88.00
75824;DHT22;64457;51.976;9.834;2023-07-28T14:28:23;29.30;87.30
75824;DHT22;64457;51.976;9.834;2023-07-28T14:30:52;29.20;86.30
75824;DHT22;64457;51.976;9.834;2023-07-28T14:33:20;29.00;87.60
75824;DHT22;64457;51.976;9.834;2023-07-28T14:35:49;29.10;87.90
75824;DHT22;64457;51.976;9.834;2023-07-28T14:38:17;29.30;87.80
75824;DHT22;64457;51.976;9.834;2023-07-28T14:40:45;29.50;86.50
75824;DHT22;64457;51.976;9.834;2023-07-28T14:43:14;29.60;85.60
75824;DHT22;64457;51.976;9.834;2023-07-28T14:45:42;29.30;85.40
75824;DHT22;64457;51.976;9.834;2023-07-28T14:48:12;29.30;86.00
75824;DHT22;64457;51.976;9.834;2023-07-28T14:50:40;29.20;86.70
75824;DHT22;64457;51.976;9.834;2023-07-28T14:53:28;29.40;86.10
75824;DHT22;64457;51.976;9.834;2023-07-28T14:56:00;29.40;86.00
75824;DHT22;64457;51.976;9.834;2023-07-28T14:58:29;29.60;85.90
75824;DHT22;64457;51.976;9.834;2023-07-28T15:00:57;29.70;85.80
75824;DHT22;64457;51.976;9.834;2023-07-28T15:03:28;29.80;84.70
75824;DHT22;64457;51.976;9.834;2023-07-28T15:05:57;30.00;84.50
75824;DHT22;64457;51.976;9.834;2023-07-28T15:08:25;30.00;82.10
75824;DHT22;64457;51.976;9.834;2023-07-28T15:10:53;29.80;83.90
75824;DHT22;64457;51.976;9.834;2023-07-28T15:13:21;30.00;85.50
75824;DHT22;64457;51.976;9.834;2023-07-28T15:15:49;30.10;84.00
75824;DHT22;64457;51.976;9.834;2023-07-28T15:18:17;30.20;82.40
75824;DHT22;64457;51.976;9.834;2023-07-28T15:20:46;29.60;81.00
75824;DHT22;64457;51.976;9.834;2023-07-28T15:23:14;29.30;83.70
75824;DHT22;64457;51.976;9.834;2023-07-28T15:25:41;29.30;84.60
75824;DHT22;64457;51.976;9.834;2023-07-28T15:28:09;29.40;82.50
75824;DHT22;64457;51.976;9.834;2023-07-28T15:30:37;29.00;83.20
75824;DHT22;64457;51.976;9.834;2023-07-28T15:33:05;29.00;84.30
75824;DHT22;64457;51.976;9.834;2023-07-28T15:35:33;29.10;85.70
75824;DHT22;64457;51.976;9.834;2023-07-28T15:38:02;29.30;85.30
75824;DHT22;64457;51.976;9.834;2023-07-28T15:40:30;29.50;85.00